Terminal Aerodrome Forecast
Issued by NWS Charleston, WV

Current Version | Previous Version | Text Only | Print | Product List | Glossary Off
Versions: 1 2 3 4 5 6 7 8 9 10 11 12 13 14 15 16 17 18 19 20 21 22

000
FTUS41 KRLX 231100
TAFBKW
TAF
KBKW 231124Z 2312/2412 31012KT P6SM BKN025
     FM231500 32011G18KT P6SM SCT030
     FM231700 32011G20KT P6SM SKC
     FM240000 32005KT P6SM SKC
     FM240500 00000KT P6SM SKC=

USA.gov is the U.S. government's official web portal to all federal, state and local government web resources and services.